sensor_id;sensor_type;location;lat;lon;timestamp;P1;durP1;ratioP1;P2;durP2;ratioP2
19127;SDS011;9696;53.686;10.094;2023-07-20T00:01:18;4.23;;;1.70;;
19127;SDS011;9696;53.686;10.094;2023-07-20T00:03:52;3.50;;;1.70;;
19127;SDS011;9696;53.686;10.094;2023-07-20T00:06:23;2.60;;;1.90;;
19127;SDS011;9696;53.686;10.094;2023-07-20T00:08:56;4.47;;;1.60;;
19127;SDS011;9696;53.686;10.094;2023-07-20T00:11:26;8.23;;;2.07;;
19127;SDS011;9696;53.686;10.094;2023-07-20T00:17:09;1.87;;;1.47;;
19127;SDS011;9696;53.686;10.094;2023-07-20T00:19:40;6.43;;;2.40;;
19127;SDS011;9696;53.686;10.094;2023-07-20T00:22:09;8.67;;;1.93;;
19127;SDS011;9696;53.686;10.094;2023-07-20T00:24:41;3.87;;;1.87;;
19127;SDS011;9696;53.686;10.094;2023-07-20T00:27:12;5.77;;;1.93;;
19127;SDS011;9696;53.686;10.094;2023-07-20T00:29:44;5.53;;;1.57;;
19127;SDS011;9696;53.686;10.094;2023-07-20T00:32:13;4.30;;;1.73;;
19127;SDS011;9696;53.686;10.094;2023-07-20T00:34:44;2.40;;;1.77;;
19127;SDS011;9696;53.686;10.094;2023-07-20T00:37:15;2.30;;;1.67;;
19127;SDS011;9696;53.686;10.094;2023-07-20T00:39:45;4.53;;;1.90;;
19127;SDS011;9696;53.686;10.094;2023-07-20T00:42:14;1.60;;;1.47;;
19127;SDS011;9696;53.686;10.094;2023-07-20T00:44:44;7.40;;;2.10;;
19127;SDS011;9696;53.686;10.094;2023-07-20T00:47:14;7.90;;;1.90;;
19127;SDS011;9696;53.686;10.094;2023-07-20T00:49:44;1.70;;;1.30;;
19127;SDS011;9696;53.686;10.094;2023-07-20T00:52:14;2.10;;;1.90;;
19127;SDS011;9696;53.686;10.094;2023-07-20T00:54:43;3.47;;;1.80;;
19127;SDS011;9696;53.686;10.094;2023-07-20T00:57:14;2.13;;;1.83;;
19127;SDS011;9696;53.686;10.094;2023-07-20T00:59:45;5.90;;;1.90;;
19127;SDS011;9696;53.686;10.094;2023-07-20T01:02:14;2.80;;;2.10;;
19127;SDS011;9696;53.686;10.094;2023-07-20T01:04:45;4.27;;;2.40;;
19127;SDS011;9696;53.686;10.094;2023-07-20T01:07:17;6.43;;;2.17;;
19127;SDS011;9696;53.686;10.094;2023-07-20T01:09:56;7.93;;;2.40;;
19127;SDS011;9696;53.686;10.094;2023-07-20T01:12:30;3.13;;;2.20;;
19127;SDS011;9696;53.686;10.094;2023-07-20T01:15:10;3.17;;;2.20;;
19127;SDS011;9696;53.686;10.094;2023-07-20T01:17:39;4.93;;;2.90;;
19127;SDS011;9696;53.686;10.094;2023-07-20T01:20:12;4.97;;;3.00;;
19127;SDS011;9696;53.686;10.094;2023-07-20T01:25:57;5.10;;;2.83;;
19127;SDS011;9696;53.686;10.094;2023-07-20T01:28:42;3.63;;;2.67;;
19127;SDS011;9696;53.686;10.094;2023-07-20T01:31:43;4.43;;;2.50;;
19127;SDS011;9696;53.686;10.094;2023-07-20T01:34:15;3.50;;;2.30;;
19127;SDS011;9696;53.686;10.094;2023-07-20T01:36:47;4.33;;;2.97;;
19127;SDS011;9696;53.686;10.094;2023-07-20T01:39:19;6.17;;;3.17;;
19127;SDS011;9696;53.686;10.094;2023-07-20T01:41:49;4.23;;;2.80;;
19127;SDS011;9696;53.686;10.094;2023-07-20T01:44:18;4.83;;;3.20;;
19127;SDS011;9696;53.686;10.094;2023-07-20T01:46:49;8.87;;;2.90;;
19127;SDS011;9696;53.686;10.094;2023-07-20T01:49:19;8.43;;;3.13;;
19127;SDS011;9696;53.686;10.094;2023-07-20T01:51:49;5.13;;;3.03;;
19127;SDS011;9696;53.686;10.094;2023-07-20T01:54:18;4.27;;;3.20;;
19127;SDS011;9696;53.686;10.094;2023-07-20T01:56:48;5.70;;;3.27;;
19127;SDS011;9696;53.686;10.094;2023-07-20T01:59:18;5.83;;;3.43;;
19127;SDS011;9696;53.686;10.094;2023-07-20T02:01:50;7.30;;;3.67;;
19127;SDS011;9696;53.686;10.094;2023-07-20T02:04:20;4.00;;;3.03;;
19127;SDS011;9696;53.686;10.094;2023-07-20T02:06:49;6.03;;;3.90;;
19127;SDS011;9696;53.686;10.094;2023-07-20T02:09:18;6.07;;;3.47;;
19127;SDS011;9696;53.686;10.094;2023-07-20T02:11:48;6.67;;;3.27;;
19127;SDS011;9696;53.686;10.094;2023-07-20T02:14:20;4.20;;;3.03;;
19127;SDS011;9696;53.686;10.094;2023-07-20T02:16:52;6.63;;;3.60;;
19127;SDS011;9696;53.686;10.094;2023-07-20T02:19:27;6.17;;;3.90;;
19127;SDS011;9696;53.686;10.094;2023-07-20T02:21:59;5.77;;;3.77;;
19127;SDS011;9696;53.686;10.094;2023-07-20T02:24:29;4.93;;;3.73;;
19127;SDS011;9696;53.686;10.094;2023-07-20T02:26:59;4.90;;;3.60;;
19127;SDS011;9696;53.686;10.094;2023-07-20T02:29:30;13.17;;;3.50;;
19127;SDS011;9696;53.686;10.094;2023-07-20T02:32:00;7.17;;;3.83;;
19127;SDS011;9696;53.686;10.094;2023-07-20T02:34:30;6.20;;;4.00;;
19127;SDS011;9696;53.686;10.094;2023-07-20T02:37:00;12.27;;;4.23;;
19127;SDS011;9696;53.686;10.094;2023-07-20T02:39:29;7.07;;;4.20;;
19127;SDS011;9696;53.686;10.094;2023-07-20T02:41:58;5.10;;;3.93;;
19127;SDS011;9696;53.686;10.094;2023-07-20T02:44:29;7.50;;;4.63;;
19127;SDS011;9696;53.686;10.094;2023-07-20T02:46:59;9.97;;;4.70;;
19127;SDS011;9696;53.686;10.094;2023-07-20T02:49:32;9.90;;;4.70;;
19127;SDS011;9696;53.686;10.094;2023-07-20T02:52:05;12.13;;;5.07;;
19127;SDS011;9696;53.686;10.094;2023-07-20T02:54:35;7.90;;;4.67;;
19127;SDS011;9696;53.686;10.094;2023-07-20T02:57:04;9.63;;;4.80;;
19127;SDS011;9696;53.686;10.094;2023-07-20T02:59:33;5.87;;;3.97;;
19127;SDS011;9696;53.686;10.094;2023-07-20T03:02:04;8.07;;;4.90;;
19127;SDS011;9696;53.686;10.094;2023-07-20T03:04:37;7.20;;;5.00;;
19127;SDS011;9696;53.686;10.094;2023-07-20T03:07:08;5.97;;;4.27;;
19127;SDS011;9696;53.686;10.094;2023-07-20T03:09:37;7.60;;;4.37;;
19127;SDS011;9696;53.686;10.094;2023-07-20T03:12:08;8.03;;;4.90;;
19127;SDS011;9696;53.686;10.094;2023-07-20T03:14:37;8.47;;;5.60;;
19127;SDS011;9696;53.686;10.094;2023-07-20T03:17:10;7.50;;;5.30;;
19127;SDS011;9696;53.686;10.094;2023-07-20T03:19:40;15.03;;;5.73;;
19127;SDS011;9696;53.686;10.094;2023-07-20T03:22:10;7.30;;;4.60;;
19127;SDS011;9696;53.686;10.094;2023-07-20T03:24:39;9.23;;;5.47;;
19127;SDS011;9696;53.686;10.094;2023-07-20T03:27:09;12.07;;;4.73;;
19127;SDS011;9696;53.686;10.094;2023-07-20T03:29:38;8.57;;;5.17;;
19127;SDS011;9696;53.686;10.094;2023-07-20T03:32:11;9.60;;;5.87;;
19127;SDS011;9696;53.686;10.094;2023-07-20T03:34:42;10.47;;;5.73;;
19127;SDS011;9696;53.686;10.094;2023-07-20T03:37:14;11.20;;;5.60;;
19127;SDS011;9696;53.686;10.094;2023-07-20T03:39:43;20.30;;;5.67;;
19127;SDS011;9696;53.686;10.094;2023-07-20T03:42:13;9.00;;;6.23;;
19127;SDS011;9696;53.686;10.094;2023-07-20T03:44:42;8.47;;;5.73;;
19127;SDS011;9696;53.686;10.094;2023-07-20T03:47:13;9.57;;;5.77;;
19127;SDS011;9696;53.686;10.094;2023-07-20T03:49:42;13.53;;;5.60;;
19127;SDS011;9696;53.686;10.094;2023-07-20T03:52:11;7.93;;;4.87;;
19127;SDS011;9696;53.686;10.094;2023-07-20T03:54:42;7.73;;;5.20;;
19127;SDS011;9696;53.686;10.094;2023-07-20T03:57:11;12.57;;;5.50;;
19127;SDS011;9696;53.686;10.094;2023-07-20T03:59:44;8.80;;;5.73;;
19127;SDS011;9696;53.686;10.094;2023-07-20T04:02:15;7.20;;;5.30;;
19127;SDS011;9696;53.686;10.094;2023-07-20T04:04:44;11.87;;;5.43;;
19127;SDS011;9696;53.686;10.094;2023-07-20T04:07:16;8.20;;;5.30;;
19127;SDS011;9696;53.686;10.094;2023-07-20T04:09:45;8.40;;;4.77;;
19127;SDS011;9696;53.686;10.094;2023-07-20T04:12:15;6.67;;;4.83;;
19127;SDS011;9696;53.686;10.094;2023-07-20T04:14:47;7.10;;;5.10;;
19127;SDS011;9696;53.686;10.094;2023-07-20T04:17:18;6.70;;;5.00;;
19127;SDS011;9696;53.686;10.094;2023-07-20T04:19:47;7.47;;;4.80;;
19127;SDS011;9696;53.686;10.094;2023-07-20T04:22:19;5.93;;;4.00;;
19127;SDS011;9696;53.686;10.094;2023-07-20T04:24:49;9.60;;;4.83;;
19127;SDS011;9696;53.686;10.094;2023-07-20T04:27:19;6.47;;;4.70;;
19127;SDS011;9696;53.686;10.094;2023-07-20T04:29:48;6.83;;;4.77;;
19127;SDS011;9696;53.686;10.094;2023-07-20T04:32:19;8.10;;;4.73;;
19127;SDS011;9696;53.686;10.094;2023-07-20T04:34:48;9.67;;;4.47;;
19127;SDS011;9696;53.686;10.094;2023-07-20T04:37:18;8.50;;;4.57;;
19127;SDS011;9696;53.686;10.094;2023-07-20T04:39:48;6.20;;;4.20;;
19127;SDS011;9696;53.686;10.094;2023-07-20T04:42:17;6.33;;;4.63;;
19127;SDS011;9696;53.686;10.094;2023-07-20T04:44:47;7.13;;;4.50;;
19127;SDS011;9696;53.686;10.094;2023-07-20T04:47:16;7.83;;;5.13;;
19127;SDS011;9696;53.686;10.094;2023-07-20T04:49:49;7.20;;;4.77;;
19127;SDS011;9696;53.686;10.094;2023-07-20T04:52:19;7.53;;;4.23;;
19127;SDS011;9696;53.686;10.094;2023-07-20T04:55:03;8.60;;;4.67;;
19127;SDS011;9696;53.686;10.094;2023-07-20T04:57:34;6.53;;;4.80;;
19127;SDS011;9696;53.686;10.094;2023-07-20T05:00:05;7.63;;;4.93;;
19127;SDS011;9696;53.686;10.094;2023-07-20T05:02:38;6.10;;;4.47;;
19127;SDS011;9696;53.686;10.094;2023-07-20T05:05:13;7.23;;;4.43;;
19127;SDS011;9696;53.686;10.094;2023-07-20T05:07:50;7.20;;;4.43;;
19127;SDS011;9696;53.686;10.094;2023-07-20T05:10:25;5.13;;;4.10;;
19127;SDS011;9696;53.686;10.094;2023-07-20T05:13:00;4.37;;;3.67;;
19127;SDS011;9696;53.686;10.094;2023-07-20T05:15:32;4.93;;;3.07;;
19127;SDS011;9696;53.686;10.094;2023-07-20T05:18:13;3.27;;;2.57;;
19127;SDS011;9696;53.686;10.094;2023-07-20T05:21:05;3.10;;;2.67;;
19127;SDS011;9696;53.686;10.094;2023-07-20T05:23:35;3.83;;;2.35;;
19127;SDS011;9696;53.686;10.094;2023-07-20T05:26:04;4.30;;;2.25;;
19127;SDS011;9696;53.686;10.094;2023-07-20T05:28:34;2.78;;;1.67;;
19127;SDS011;9696;53.686;10.094;2023-07-20T05:31:03;3.35;;;1.70;;
19127;SDS011;9696;53.686;10.094;2023-07-20T05:33:33;1.73;;;1.35;;
19127;SDS011;9696;53.686;10.094;2023-07-20T05:36:06;1.70;;;1.55;;
19127;SDS011;9696;53.686;10.094;2023-07-20T05:38:36;2.13;;;1.38;;
19127;SDS011;9696;53.686;10.094;2023-07-20T05:41:06;1.80;;;1.42;;
19127;SDS011;9696;53.686;10.094;2023-07-20T05:43:37;1.02;;;0.93;;
19127;SDS011;9696;53.686;10.094;2023-07-20T05:46:06;4.68;;;0.80;;
19127;SDS011;9696;53.686;10.094;2023-07-20T05:48:37;0.65;;;0.60;;
19127;SDS011;9696;53.686;10.094;2023-07-20T05:51:07;2.25;;;0.60;;
19127;SDS011;9696;53.686;10.094;2023-07-20T05:53:36;1.25;;;0.70;;
19127;SDS011;9696;53.686;10.094;2023-07-20T05:56:06;0.93;;;0.50;;
19127;SDS011;9696;53.686;10.094;2023-07-20T05:58:38;1.23;;;0.50;;
19127;SDS011;9696;53.686;10.094;2023-07-20T06:01:08;1.67;;;0.60;;
19127;SDS011;9696;53.686;10.094;2023-07-20T06:03:39;1.85;;;0.45;;
19127;SDS011;9696;53.686;10.094;2023-07-20T06:06:09;1.33;;;0.70;;
19127;SDS011;9696;53.686;10.094;2023-07-20T06:08:39;3.70;;;0.60;;
19127;SDS011;9696;53.686;10.094;2023-07-20T06:11:09;3.67;;;0.70;;
19127;SDS011;9696;53.686;10.094;2023-07-20T06:13:52;0.85;;;0.40;;
19127;SDS011;9696;53.686;10.094;2023-07-20T06:16:22;1.05;;;0.50;;
19127;SDS011;9696;53.686;10.094;2023-07-20T06:18:54;0.50;;;0.35;;
19127;SDS011;9696;53.686;10.094;2023-07-20T06:21:23;0.50;;;0.45;;
19127;SDS011;9696;53.686;10.094;2023-07-20T06:23:53;2.50;;;0.70;;
19127;SDS011;9696;53.686;10.094;2023-07-20T06:26:22;1.77;;;0.68;;
19127;SDS011;9696;53.686;10.094;2023-07-20T06:28:52;3.92;;;0.50;;
19127;SDS011;9696;53.686;10.094;2023-07-20T06:31:25;2.50;;;0.70;;
19127;SDS011;9696;53.686;10.094;2023-07-20T06:33:56;1.35;;;0.68;;
19127;SDS011;9696;53.686;10.094;2023-07-20T06:36:25;6.18;;;0.60;;
19127;SDS011;9696;53.686;10.094;2023-07-20T06:38:56;1.35;;;0.43;;
19127;SDS011;9696;53.686;10.094;2023-07-20T06:41:30;5.28;;;0.50;;
19127;SDS011;9696;53.686;10.094;2023-07-20T06:44:02;1.00;;;0.50;;
19127;SDS011;9696;53.686;10.094;2023-07-20T06:46:32;1.33;;;0.40;;
19127;SDS011;9696;53.686;10.094;2023-07-20T06:49:05;4.25;;;0.68;;
19127;SDS011;9696;53.686;10.094;2023-07-20T06:51:40;0.98;;;0.50;;
19127;SDS011;9696;53.686;10.094;2023-07-20T06:54:12;2.53;;;0.70;;
19127;SDS011;9696;53.686;10.094;2023-07-20T06:56:42;3.80;;;0.70;;
19127;SDS011;9696;53.686;10.094;2023-07-20T06:59:33;32.25;;;4.90;;
19127;SDS011;9696;53.686;10.094;2023-07-20T07:02:07;7.78;;;1.02;;
19127;SDS011;9696;53.686;10.094;2023-07-20T07:04:42;6.25;;;1.35;;
19127;SDS011;9696;53.686;10.094;2023-07-20T07:07:13;2.90;;;0.80;;
19127;SDS011;9696;53.686;10.094;2023-07-20T07:09:53;2.00;;;0.65;;
19127;SDS011;9696;53.686;10.094;2023-07-20T07:12:25;5.72;;;0.68;;
19127;SDS011;9696;53.686;10.094;2023-07-20T07:14:54;12.68;;;0.80;;
19127;SDS011;9696;53.686;10.094;2023-07-20T07:17:23;2.75;;;0.52;;
19127;SDS011;9696;53.686;10.094;2023-07-20T07:19:54;5.70;;;0.90;;
19127;SDS011;9696;53.686;10.094;2023-07-20T07:22:24;15.02;;;2.30;;
19127;SDS011;9696;53.686;10.094;2023-07-20T07:24:54;11.57;;;2.42;;
19127;SDS011;9696;53.686;10.094;2023-07-20T07:27:23;5.22;;;1.08;;
19127;SDS011;9696;53.686;10.094;2023-07-20T07:29:53;2.63;;;0.80;;
19127;SDS011;9696;53.686;10.094;2023-07-20T07:32:23;3.53;;;0.70;;
19127;SDS011;9696;53.686;10.094;2023-07-20T07:34:55;1.95;;;0.70;;
19127;SDS011;9696;53.686;10.094;2023-07-20T07:37:25;3.08;;;0.75;;
19127;SDS011;9696;53.686;10.094;2023-07-20T07:39:55;3.05;;;0.80;;
19127;SDS011;9696;53.686;10.094;2023-07-20T07:42:24;6.72;;;0.63;;
19127;SDS011;9696;53.686;10.094;2023-07-20T07:44:58;1.13;;;0.85;;
19127;SDS011;9696;53.686;10.094;2023-07-20T07:47:27;4.70;;;0.80;;
19127;SDS011;9696;53.686;10.094;2023-07-20T07:49:59;4.25;;;0.98;;
19127;SDS011;9696;53.686;10.094;2023-07-20T07:52:28;2.38;;;0.73;;
19127;SDS011;9696;53.686;10.094;2023-07-20T07:54:58;2.75;;;0.80;;
19127;SDS011;9696;53.686;10.094;2023-07-20T07:57:30;4.72;;;0.90;;
19127;SDS011;9696;53.686;10.094;2023-07-20T07:59:59;7.15;;;1.08;;
19127;SDS011;9696;53.686;10.094;2023-07-20T08:02:30;2.33;;;0.90;;
19127;SDS011;9696;53.686;10.094;2023-07-20T08:05:01;1.80;;;1.00;;
19127;SDS011;9696;53.686;10.094;2023-07-20T08:07:30;2.15;;;0.95;;
19127;SDS011;9696;53.686;10.094;2023-07-20T08:09:59;2.88;;;0.90;;
19127;SDS011;9696;53.686;10.094;2023-07-20T08:12:30;2.55;;;0.80;;
19127;SDS011;9696;53.686;10.094;2023-07-20T08:15:00;8.75;;;1.20;;
19127;SDS011;9696;53.686;10.094;2023-07-20T08:17:30;8.40;;;1.20;;
19127;SDS011;9696;53.686;10.094;2023-07-20T08:20:02;2.03;;;0.90;;
19127;SDS011;9696;53.686;10.094;2023-07-20T08:22:33;3.15;;;0.90;;
19127;SDS011;9696;53.686;10.094;2023-07-20T08:25:04;4.38;;;1.15;;
19127;SDS011;9696;53.686;10.094;2023-07-20T08:27:33;7.55;;;1.20;;
19127;SDS011;9696;53.686;10.094;2023-07-20T08:30:03;2.10;;;0.68;;
19127;SDS011;9696;53.686;10.094;2023-07-20T08:32:40;3.40;;;1.05;;
19127;SDS011;9696;53.686;10.094;2023-07-20T08:35:11;2.60;;;1.00;;
19127;SDS011;9696;53.686;10.094;2023-07-20T08:37:42;4.15;;;1.10;;
19127;SDS011;9696;53.686;10.094;2023-07-20T08:40:11;2.85;;;0.88;;
19127;SDS011;9696;53.686;10.094;2023-07-20T08:42:47;5.40;;;0.88;;
19127;SDS011;9696;53.686;10.094;2023-07-20T08:45:17;2.80;;;0.75;;
19127;SDS011;9696;53.686;10.094;2023-07-20T08:47:49;3.92;;;0.98;;
19127;SDS011;9696;53.686;10.094;2023-07-20T08:50:20;3.97;;;1.10;;
19127;SDS011;9696;53.686;10.094;2023-07-20T08:52:51;1.80;;;0.90;;
19127;SDS011;9696;53.686;10.094;2023-07-20T08:55:23;2.70;;;0.70;;
19127;SDS011;9696;53.686;10.094;2023-07-20T08:57:54;3.53;;;0.80;;
19127;SDS011;9696;53.686;10.094;2023-07-20T09:00:25;2.00;;;0.77;;
19127;SDS011;9696;53.686;10.094;2023-07-20T09:02:56;5.00;;;0.95;;
19127;SDS011;9696;53.686;10.094;2023-07-20T09:05:29;2.92;;;0.68;;
19127;SDS011;9696;53.686;10.094;2023-07-20T09:08:02;1.33;;;0.50;;
19127;SDS011;9696;53.686;10.094;2023-07-20T09:10:32;4.55;;;0.45;;
19127;SDS011;9696;53.686;10.094;2023-07-20T09:13:01;3.30;;;0.60;;
19127;SDS011;9696;53.686;10.094;2023-07-20T09:15:31;2.50;;;0.57;;
19127;SDS011;9696;53.686;10.094;2023-07-20T09:18:04;3.17;;;0.50;;
19127;SDS011;9696;53.686;10.094;2023-07-20T09:20:37;6.60;;;0.70;;
19127;SDS011;9696;53.686;10.094;2023-07-20T09:23:07;2.20;;;0.50;;
19127;SDS011;9696;53.686;10.094;2023-07-20T09:25:41;4.25;;;0.50;;
19127;SDS011;9696;53.686;10.094;2023-07-20T09:28:14;1.80;;;0.60;;
19127;SDS011;9696;53.686;10.094;2023-07-20T09:30:44;3.97;;;0.57;;
19127;SDS011;9696;53.686;10.094;2023-07-20T09:33:21;1.55;;;0.50;;
19127;SDS011;9696;53.686;10.094;2023-07-20T09:35:56;2.63;;;0.90;;
19127;SDS011;9696;53.686;10.094;2023-07-20T09:38:53;1.27;;;0.55;;
19127;SDS011;9696;53.686;10.094;2023-07-20T09:41:39;2.60;;;0.68;;
19127;SDS011;9696;53.686;10.094;2023-07-20T09:44:14;1.67;;;0.45;;
19127;SDS011;9696;53.686;10.094;2023-07-20T09:46:48;1.13;;;0.45;;
19127;SDS011;9696;53.686;10.094;2023-07-20T09:49:23;2.05;;;0.50;;
19127;SDS011;9696;53.686;10.094;2023-07-20T09:51:58;3.45;;;0.70;;
19127;SDS011;9696;53.686;10.094;2023-07-20T09:54:29;0.88;;;0.43;;
19127;SDS011;9696;53.686;10.094;2023-07-20T09:56:59;0.82;;;0.22;;
19127;SDS011;9696;53.686;10.094;2023-07-20T09:59:31;2.10;;;0.30;;
19127;SDS011;9696;53.686;10.094;2023-07-20T10:04:53;1.52;;;0.20;;
19127;SDS011;9696;53.686;10.094;2023-07-20T10:07:27;2.90;;;0.35;;
19127;SDS011;9696;53.686;10.094;2023-07-20T10:09:59;1.13;;;0.20;;
19127;SDS011;9696;53.686;10.094;2023-07-20T10:12:34;1.33;;;0.32;;
19127;SDS011;9696;53.686;10.094;2023-07-20T10:15:09;2.70;;;0.40;;
19127;SDS011;9696;53.686;10.094;2023-07-20T10:17:46;1.45;;;0.40;;
19127;SDS011;9696;53.686;10.094;2023-07-20T10:20:25;4.55;;;0.52;;
19127;SDS011;9696;53.686;10.094;2023-07-20T10:22:59;2.55;;;0.38;;
19127;SDS011;9696;53.686;10.094;2023-07-20T10:25:29;1.77;;;0.43;;
19127;SDS011;9696;53.686;10.094;2023-07-20T10:28:00;1.90;;;0.28;;
19127;SDS011;9696;53.686;10.094;2023-07-20T10:30:30;2.00;;;0.30;;
19127;SDS011;9696;53.686;10.094;2023-07-20T10:33:02;2.30;;;0.28;;
19127;SDS011;9696;53.686;10.094;2023-07-20T10:35:50;2.67;;;0.47;;
19127;SDS011;9696;53.686;10.094;2023-07-20T10:38:21;3.33;;;0.40;;
19127;SDS011;9696;53.686;10.094;2023-07-20T10:41:17;2.17;;;0.40;;
19127;SDS011;9696;53.686;10.094;2023-07-20T10:43:48;1.77;;;0.40;;
19127;SDS011;9696;53.686;10.094;2023-07-20T10:49:02;1.48;;;0.30;;
19127;SDS011;9696;53.686;10.094;2023-07-20T10:51:38;2.33;;;0.30;;
19127;SDS011;9696;53.686;10.094;2023-07-20T10:54:12;0.77;;;0.35;;
19127;SDS011;9696;53.686;10.094;2023-07-20T10:59:52;1.67;;;0.38;;
19127;SDS011;9696;53.686;10.094;2023-07-20T11:02:45;4.38;;;0.50;;
19127;SDS011;9696;53.686;10.094;2023-07-20T11:05:33;0.80;;;0.35;;
19127;SDS011;9696;53.686;10.094;2023-07-20T11:08:04;1.55;;;0.30;;
19127;SDS011;9696;53.686;10.094;2023-07-20T11:10:39;3.72;;;0.35;;
19127;SDS011;9696;53.686;10.094;2023-07-20T11:13:16;2.65;;;0.65;;
19127;SDS011;9696;53.686;10.094;2023-07-20T11:15:47;3.92;;;0.50;;
19127;SDS011;9696;53.686;10.094;2023-07-20T11:18:32;2.45;;;0.35;;
19127;SDS011;9696;53.686;10.094;2023-07-20T11:21:08;8.95;;;0.50;;
19127;SDS011;9696;53.686;10.094;2023-07-20T11:23:39;3.53;;;0.40;;
19127;SDS011;9696;53.686;10.094;2023-07-20T11:26:11;4.95;;;0.50;;
19127;SDS011;9696;53.686;10.094;2023-07-20T11:28:42;1.85;;;0.20;;
19127;SDS011;9696;53.686;10.094;2023-07-20T11:31:13;1.65;;;0.45;;
19127;SDS011;9696;53.686;10.094;2023-07-20T11:33:44;2.67;;;0.38;;
19127;SDS011;9696;53.686;10.094;2023-07-20T11:36:13;1.45;;;0.38;;
19127;SDS011;9696;53.686;10.094;2023-07-20T11:38:46;1.85;;;0.40;;
19127;SDS011;9696;53.686;10.094;2023-07-20T11:41:17;3.00;;;0.35;;
19127;SDS011;9696;53.686;10.094;2023-07-20T11:43:47;0.57;;;0.10;;
19127;SDS011;9696;53.686;10.094;2023-07-20T11:46:16;2.22;;;0.47;;
19127;SDS011;9696;53.686;10.094;2023-07-20T11:48:46;2.88;;;0.40;;
19127;SDS011;9696;53.686;10.094;2023-07-20T11:51:18;5.70;;;0.63;;
19127;SDS011;9696;53.686;10.094;2023-07-20T11:53:50;1.70;;;0.57;;
19127;SDS011;9696;53.686;10.094;2023-07-20T11:59:31;2.92;;;0.50;;
19127;SDS011;9696;53.686;10.094;2023-07-20T12:02:01;1.48;;;0.40;;
19127;SDS011;9696;53.686;10.094;2023-07-20T12:04:32;2.95;;;0.60;;
19127;SDS011;9696;53.686;10.094;2023-07-20T12:07:04;3.03;;;0.68;;
19127;SDS011;9696;53.686;10.094;2023-07-20T12:09:36;4.13;;;0.65;;
19127;SDS011;9696;53.686;10.094;2023-07-20T12:12:18;1.88;;;0.82;;
19127;SDS011;9696;53.686;10.094;2023-07-20T12:14:48;3.60;;;0.40;;
19127;SDS011;9696;53.686;10.094;2023-07-20T12:17:19;1.48;;;0.50;;
19127;SDS011;9696;53.686;10.094;2023-07-20T12:19:48;1.27;;;0.40;;
19127;SDS011;9696;53.686;10.094;2023-07-20T12:22:26;4.60;;;0.80;;
19127;SDS011;9696;53.686;10.094;2023-07-20T12:24:55;5.03;;;0.75;;
19127;SDS011;9696;53.686;10.094;2023-07-20T12:27:28;7.03;;;0.77;;
19127;SDS011;9696;53.686;10.094;2023-07-20T12:29:58;5.38;;;0.70;;
19127;SDS011;9696;53.686;10.094;2023-07-20T12:32:28;11.82;;;0.70;;
19127;SDS011;9696;53.686;10.094;2023-07-20T12:34:57;5.05;;;0.93;;
19127;SDS011;9696;53.686;10.094;2023-07-20T12:37:28;0.90;;;0.50;;
19127;SDS011;9696;53.686;10.094;2023-07-20T12:39:57;6.90;;;0.90;;
19127;SDS011;9696;53.686;10.094;2023-07-20T12:42:31;4.28;;;1.00;;
19127;SDS011;9696;53.686;10.094;2023-07-20T12:45:02;3.58;;;0.40;;
19127;SDS011;9696;53.686;10.094;2023-07-20T12:47:32;5.28;;;0.60;;
19127;SDS011;9696;53.686;10.094;2023-07-20T12:50:02;8.25;;;1.00;;
19127;SDS011;9696;53.686;10.094;2023-07-20T12:52:35;0.85;;;0.40;;
19127;SDS011;9696;53.686;10.094;2023-07-20T12:55:07;4.97;;;0.90;;
19127;SDS011;9696;53.686;10.094;2023-07-20T12:57:40;5.47;;;0.80;;
19127;SDS011;9696;53.686;10.094;2023-07-20T13:00:10;0.90;;;0.40;;
19127;SDS011;9696;53.686;10.094;2023-07-20T13:02:40;2.95;;;0.50;;
19127;SDS011;9696;53.686;10.094;2023-07-20T13:05:10;1.33;;;0.30;;
19127;SDS011;9696;53.686;10.094;2023-07-20T13:07:40;2.15;;;0.50;;
19127;SDS011;9696;53.686;10.094;2023-07-20T13:10:13;1.58;;;0.50;;
19127;SDS011;9696;53.686;10.094;2023-07-20T13:12:43;1.75;;;0.35;;
19127;SDS011;9696;53.686;10.094;2023-07-20T13:15:13;2.63;;;0.60;;
19127;SDS011;9696;53.686;10.094;2023-07-20T13:17:42;0.90;;;0.45;;
19127;SDS011;9696;53.686;10.094;2023-07-20T13:20:11;2.95;;;0.47;;
19127;SDS011;9696;53.686;10.094;2023-07-20T13:22:41;1.90;;;0.40;;
19127;SDS011;9696;53.686;10.094;2023-07-20T13:25:10;5.47;;;0.60;;
19127;SDS011;9696;53.686;10.094;2023-07-20T13:27:39;3.17;;;0.70;;
19127;SDS011;9696;53.686;10.094;2023-07-20T13:30:11;1.33;;;0.47;;
19127;SDS011;9696;53.686;10.094;2023-07-20T13:32:43;2.05;;;0.50;;
19127;SDS011;9696;53.686;10.094;2023-07-20T13:35:14;2.75;;;0.50;;
19127;SDS011;9696;53.686;10.094;2023-07-20T13:37:43;1.70;;;0.50;;
19127;SDS011;9696;53.686;10.094;2023-07-20T13:40:14;4.53;;;0.70;;
19127;SDS011;9696;53.686;10.094;2023-07-20T13:42:45;1.80;;;0.43;;
19127;SDS011;9696;53.686;10.094;2023-07-20T13:45:16;5.32;;;0.70;;
19127;SDS011;9696;53.686;10.094;2023-07-20T13:47:45;3.10;;;0.50;;
19127;SDS011;9696;53.686;10.094;2023-07-20T13:50:17;3.58;;;0.60;;
19127;SDS011;9696;53.686;10.094;2023-07-20T13:52:50;3.13;;;0.50;;
19127;SDS011;9696;53.686;10.094;2023-07-20T13:55:40;1.25;;;0.40;;
19127;SDS011;9696;53.686;10.094;2023-07-20T13:58:12;2.30;;;0.57;;
19127;SDS011;9696;53.686;10.094;2023-07-20T14:00:44;3.63;;;0.50;;
19127;SDS011;9696;53.686;10.094;2023-07-20T14:03:13;1.77;;;0.50;;
19127;SDS011;9696;53.686;10.094;2023-07-20T14:05:46;1.80;;;0.35;;
19127;SDS011;9696;53.686;10.094;2023-07-20T14:08:20;1.42;;;0.40;;
19127;SDS011;9696;53.686;10.094;2023-07-20T14:10:49;3.75;;;0.50;;
19127;SDS011;9696;53.686;10.094;2023-07-20T14:13:22;1.67;;;0.50;;
19127;SDS011;9696;53.686;10.094;2023-07-20T14:16:12;0.82;;;0.20;;
19127;SDS011;9696;53.686;10.094;2023-07-20T14:18:41;1.55;;;0.45;;
19127;SDS011;9696;53.686;10.094;2023-07-20T14:21:16;1.50;;;0.40;;
19127;SDS011;9696;53.686;10.094;2023-07-20T14:23:47;2.20;;;0.40;;
19127;SDS011;9696;53.686;10.094;2023-07-20T14:26:20;1.13;;;0.28;;
19127;SDS011;9696;53.686;10.094;2023-07-20T14:28:52;1.88;;;0.30;;
19127;SDS011;9696;53.686;10.094;2023-07-20T14:31:23;6.13;;;0.30;;
19127;SDS011;9696;53.686;10.094;2023-07-20T14:33:52;2.20;;;0.30;;
19127;SDS011;9696;53.686;10.094;2023-07-20T14:36:22;0.60;;;0.30;;
19127;SDS011;9696;53.686;10.094;2023-07-20T14:38:52;2.80;;;0.40;;
19127;SDS011;9696;53.686;10.094;2023-07-20T14:41:22;3.70;;;0.35;;
19127;SDS011;9696;53.686;10.094;2023-07-20T14:43:53;2.42;;;0.40;;
19127;SDS011;9696;53.686;10.094;2023-07-20T14:46:25;0.63;;;0.10;;
19127;SDS011;9696;53.686;10.094;2023-07-20T14:48:55;3.22;;;0.40;;
19127;SDS011;9696;53.686;10.094;2023-07-20T14:51:26;2.33;;;0.28;;
19127;SDS011;9696;53.686;10.094;2023-07-20T14:54:01;1.48;;;0.30;;
19127;SDS011;9696;53.686;10.094;2023-07-20T14:56:31;2.20;;;0.30;;
19127;SDS011;9696;53.686;10.094;2023-07-20T14:59:00;1.05;;;0.30;;
19127;SDS011;9696;53.686;10.094;2023-07-20T15:01:31;2.53;;;0.30;;
19127;SDS011;9696;53.686;10.094;2023-07-20T15:04:00;6.45;;;0.40;;
19127;SDS011;9696;53.686;10.094;2023-07-20T15:06:30;2.55;;;0.70;;
19127;SDS011;9696;53.686;10.094;2023-07-20T15:08:59;2.20;;;0.47;;
19127;SDS011;9696;53.686;10.094;2023-07-20T15:11:29;3.33;;;0.50;;
19127;SDS011;9696;53.686;10.094;2023-07-20T15:14:00;2.83;;;0.73;;
19127;SDS011;9696;53.686;10.094;2023-07-20T15:16:29;9.63;;;0.68;;
19127;SDS011;9696;53.686;10.094;2023-07-20T15:19:02;4.47;;;0.57;;
19127;SDS011;9696;53.686;10.094;2023-07-20T15:21:31;5.05;;;0.80;;
19127;SDS011;9696;53.686;10.094;2023-07-20T15:24:01;2.63;;;0.43;;
19127;SDS011;9696;53.686;10.094;2023-07-20T15:26:30;3.13;;;0.73;;
19127;SDS011;9696;53.686;10.094;2023-07-20T15:29:00;3.20;;;0.68;;
19127;SDS011;9696;53.686;10.094;2023-07-20T15:31:29;3.58;;;0.77;;
19127;SDS011;9696;53.686;10.094;2023-07-20T15:34:03;4.40;;;0.55;;